createdAt,value
2022-09-07T00:00:48.106Z,1.48
2022-09-07T00:03:15.463Z,1.40
2022-09-07T00:05:47.745Z,1.42
2022-09-07T00:08:16.386Z,1.30
2022-09-07T00:10:52.883Z,1.42
2022-09-07T00:13:21.129Z,1.58
2022-09-07T00:15:48.377Z,1.40
2022-09-07T00:18:15.462Z,1.45
2022-09-07T00:20:42.391Z,1.25
2022-09-07T00:23:09.428Z,1.60
2022-09-07T00:25:39.139Z,1.40
2022-09-07T00:28:08.204Z,1.33
2022-09-07T00:30:40.377Z,1.50
2022-09-07T00:33:07.412Z,1.20
2022-09-07T00:35:38.992Z,1.85
2022-09-07T00:38:05.850Z,1.13
2022-09-07T00:40:32.763Z,1.42
2022-09-07T00:42:59.660Z,1.55
2022-09-07T00:45:26.696Z,1.25
2022-09-07T00:47:57.182Z,1.23
2022-09-07T00:50:40.842Z,1.48
2022-09-07T00:53:17.757Z,1.58
2022-09-07T00:55:47.164Z,1.58
2022-09-07T00:58:14.405Z,1.33
2022-09-07T01:00:43.430Z,1.10
2022-09-07T01:03:12.051Z,1.45
2022-09-07T01:06:14.399Z,1.33
2022-09-07T01:08:43.634Z,1.48
2022-09-07T01:11:11.878Z,1.10
2022-09-07T01:13:41.996Z,1.23
2022-09-07T01:16:29.493Z,1.40
2022-09-07T01:19:28.975Z,1.40
2022-09-07T01:22:22.924Z,1.25
2022-09-07T01:25:05.918Z,1.30
2022-09-07T01:28:09.172Z,1.30
2022-09-07T01:30:39.240Z,1.60
2022-09-07T01:33:17.585Z,1.58
2022-09-07T01:35:50.361Z,1.25
2022-09-07T01:38:27.447Z,1.42
2022-09-07T01:41:13.918Z,1.80
2022-09-07T01:44:01.093Z,1.90
2022-09-07T01:46:52.658Z,2.63
2022-09-07T01:49:25.070Z,2.42
2022-09-07T01:51:58.344Z,1.90
2022-09-07T01:54:32.929Z,2.10
2022-09-07T01:57:09.292Z,1.70
2022-09-07T01:59:41.920Z,2.42
2022-09-07T02:02:18.994Z,1.67
2022-09-07T02:05:07.995Z,2.42
2022-09-07T02:07:45.332Z,2.00
2022-09-07T02:10:46.681Z,2.25
2022-09-07T02:13:19.854Z,2.70
2022-09-07T02:16:05.028Z,3.15
2022-09-07T02:18:41.406Z,2.65
2022-09-07T02:21:10.340Z,3.25
2022-09-07T02:23:50.721Z,2.42
2022-09-07T02:26:21.541Z,2.70
2022-09-07T02:28:48.856Z,2.90
2022-09-07T02:31:16.059Z,2.85
2022-09-07T02:33:43.503Z,2.50
2022-09-07T02:36:15.061Z,2.08
2022-09-07T02:38:42.100Z,2.78
2022-09-07T02:41:34.091Z,2.78
2022-09-07T02:44:04.212Z,2.67
2022-09-07T02:46:44.955Z,2.50
2022-09-07T02:49:27.282Z,2.80
2022-09-07T02:52:32.219Z,3.53
2022-09-07T02:55:11.195Z,3.35
2022-09-07T02:58:04.098Z,3.10
2022-09-07T03:00:39.217Z,3.15
2022-09-07T03:03:20.810Z,3.10
2022-09-07T03:05:59.935Z,3.15
2022-09-07T03:08:32.055Z,2.58
2022-09-07T03:10:59.935Z,2.88
2022-09-07T03:13:29.080Z,2.58
2022-09-07T03:15:57.298Z,3.33
2022-09-07T03:18:25.888Z,3.33
2022-09-07T03:20:53.596Z,2.90
2022-09-07T03:23:20.754Z,2.78
2022-09-07T03:25:49.099Z,3.30
2022-09-07T03:28:16.451Z,2.83
2022-09-07T03:30:47.168Z,3.22
2022-09-07T03:33:17.571Z,2.78
2022-09-07T03:35:46.075Z,3.45
2022-09-07T03:38:13.159Z,3.17
2022-09-07T03:40:40.231Z,3.28
2022-09-07T03:43:07.153Z,3.53
2022-09-07T03:45:34.123Z,3.42
2022-09-07T03:48:00.987Z,3.47
2022-09-07T03:50:29.180Z,3.47
2022-09-07T03:52:56.150Z,3.70
2022-09-07T03:55:23.038Z,4.15
2022-09-07T03:57:49.971Z,3.30
2022-09-07T04:00:17.055Z,3.85
2022-09-07T04:02:44.041Z,3.78
2022-09-07T04:05:11.648Z,3.80
2022-09-07T04:07:38.825Z,3.22
2022-09-07T04:10:06.032Z,4.07
2022-09-07T04:12:32.959Z,3.42
2022-09-07T04:14:59.835Z,4.50
2022-09-07T04:17:26.752Z,4.30
2022-09-07T04:19:53.693Z,3.63
2022-09-07T04:22:20.617Z,3.63
2022-09-07T04:24:47.535Z,4.47
2022-09-07T04:27:14.518Z,4.20
2022-09-07T04:29:41.393Z,3.67
2022-09-07T04:32:10.527Z,4.78
2022-09-07T04:34:40.543Z,3.95
2022-09-07T04:37:07.465Z,4.30
2022-09-07T04:39:34.392Z,3.53
2022-09-07T04:42:01.370Z,3.22
2022-09-07T04:44:28.399Z,3.67
2022-09-07T04:46:55.292Z,3.13
2022-09-07T04:49:22.589Z,4.00
2022-09-07T04:51:49.606Z,3.47
2022-09-07T04:54:16.531Z,4.00
2022-09-07T04:56:43.468Z,3.17
2022-09-07T04:59:10.439Z,3.20
2022-09-07T05:01:37.584Z,3.95
2022-09-07T05:04:05.094Z,3.30
2022-09-07T05:06:33.539Z,3.75
2022-09-07T05:09:00.506Z,3.70
2022-09-07T05:11:29.743Z,4.15
2022-09-07T05:13:58.699Z,4.15
2022-09-07T05:16:27.065Z,3.25
2022-09-07T05:18:59.336Z,4.60
2022-09-07T05:21:28.604Z,4.93
2022-09-07T05:23:57.292Z,5.18
2022-09-07T05:26:27.195Z,4.70
2022-09-07T05:31:41.884Z,4.65
2022-09-07T05:36:56.474Z,6.20
2022-09-07T05:39:23.637Z,6.07
2022-09-07T05:41:50.532Z,5.78
2022-09-07T05:47:04.400Z,4.68
2022-09-07T05:49:32.440Z,7.13
2022-09-07T05:51:59.347Z,6.68
2022-09-07T05:54:26.643Z,5.57
2022-09-07T05:56:53.675Z,6.68
2022-09-07T05:59:20.721Z,7.72
2022-09-07T06:01:47.638Z,7.07
2022-09-07T06:04:14.635Z,7.30
2022-09-07T06:06:41.531Z,6.88
2022-09-07T06:09:11.499Z,6.70
2022-09-07T06:11:39.024Z,7.85
2022-09-07T06:14:05.964Z,6.35
2022-09-07T06:16:35.034Z,6.53
2022-09-07T06:19:06.596Z,7.32
2022-09-07T06:21:37.600Z,7.38
2022-09-07T06:24:06.147Z,6.05
2022-09-07T06:26:33.479Z,6.68
2022-09-07T06:29:02.332Z,6.32
2022-09-07T06:31:29.994Z,7.03
2022-09-07T06:33:57.406Z,7.32
2022-09-07T06:36:27.758Z,7.78
2022-09-07T06:38:56.445Z,6.20
2022-09-07T06:44:18.650Z,6.22
2022-09-07T06:49:32.886Z,6.97
2022-09-07T06:51:59.769Z,9.35
2022-09-07T06:57:13.948Z,5.78
2022-09-07T06:59:40.861Z,6.18
2022-09-07T07:02:10.243Z,6.30
2022-09-07T07:04:40.885Z,5.70
2022-09-07T07:07:12.987Z,5.63
2022-09-07T07:09:40.237Z,5.50
2022-09-07T07:12:07.392Z,6.15
2022-09-07T07:14:37.363Z,6.40
2022-09-07T07:17:06.849Z,5.82
2022-09-07T07:19:33.769Z,4.90
2022-09-07T07:24:47.593Z,6.05
2022-09-07T07:27:14.533Z,5.32
2022-09-07T07:29:41.452Z,5.15
2022-09-07T07:32:08.354Z,4.88
2022-09-07T07:34:35.272Z,5.47
2022-09-07T07:37:02.227Z,5.00
2022-09-07T07:42:16.173Z,5.45
2022-09-07T07:44:43.000Z,5.50
2022-09-07T07:47:10.447Z,4.70
2022-09-07T07:49:37.348Z,5.18
2022-09-07T07:54:53.082Z,4.47
2022-09-07T07:57:20.102Z,4.53
2022-09-07T07:59:47.018Z,4.95
2022-09-07T08:02:16.956Z,4.75
2022-09-07T08:04:44.267Z,4.80
2022-09-07T08:07:15.190Z,4.75
2022-09-07T08:09:44.544Z,5.35
2022-09-07T08:12:13.457Z,4.28
2022-09-07T08:14:41.688Z,4.38
2022-09-07T08:17:14.250Z,4.53
2022-09-07T08:19:41.788Z,4.15
2022-09-07T08:22:10.844Z,4.85
2022-09-07T08:24:37.889Z,4.60
2022-09-07T08:27:04.836Z,4.18
2022-09-07T08:29:35.027Z,4.72
2022-09-07T08:32:06.527Z,3.97
2022-09-07T08:34:36.035Z,3.88
2022-09-07T08:37:03.247Z,3.65
2022-09-07T08:39:30.480Z,3.75
2022-09-07T08:42:03.360Z,4.07
2022-09-07T08:44:42.988Z,3.90
2022-09-07T08:47:25.651Z,3.85
2022-09-07T08:50:09.773Z,3.47
2022-09-07T08:52:46.027Z,3.83
2022-09-07T08:55:31.727Z,3.33
2022-09-07T08:58:47.570Z,3.25
2022-09-07T09:04:18.510Z,3.38
2022-09-07T09:07:23.014Z,3.30
2022-09-07T09:10:09.532Z,2.58
2022-09-07T09:13:03.321Z,3.45
2022-09-07T09:15:54.104Z,2.35
2022-09-07T09:18:32.648Z,2.33
2022-09-07T09:21:00.465Z,2.58
2022-09-07T09:23:55.505Z,3.05
2022-09-07T09:26:27.476Z,2.47
2022-09-07T09:28:55.181Z,2.97
2022-09-07T09:31:26.527Z,2.90
2022-09-07T09:34:18.065Z,2.72
2022-09-07T09:36:48.488Z,2.70
2022-09-07T09:39:35.349Z,2.38
2022-09-07T09:42:15.937Z,2.22
2022-09-07T09:44:44.093Z,2.00
2022-09-07T09:47:32.397Z,2.20
2022-09-07T09:50:04.652Z,2.40
2022-09-07T09:52:45.137Z,2.30
2022-09-07T09:55:36.121Z,2.28
2022-09-07T10:01:24.030Z,2.10
2022-09-07T10:06:22.329Z,2.20
2022-09-07T10:08:59.478Z,2.35
2022-09-07T10:12:08.695Z,1.67
2022-09-07T10:14:43.294Z,2.20
2022-09-07T10:17:32.897Z,1.67
2022-09-07T10:20:22.977Z,2.08
2022-09-07T10:22:52.625Z,1.80
2022-09-07T10:25:34.064Z,1.80
2022-09-07T10:28:02.461Z,1.92
2022-09-07T10:30:33.207Z,1.77
2022-09-07T10:33:17.969Z,1.63
2022-09-07T10:35:53.699Z,1.40
2022-09-07T10:38:24.988Z,1.30
2022-09-07T10:40:58.351Z,1.40
2022-09-07T10:43:37.047Z,1.88
2022-09-07T10:49:17.460Z,1.77
2022-09-07T10:51:56.790Z,1.98
2022-09-07T10:54:41.996Z,1.88
2022-09-07T10:57:29.696Z,1.55
2022-09-07T11:00:09.864Z,1.83
2022-09-07T11:05:47.226Z,1.23
2022-09-07T11:12:04.183Z,1.70
2022-09-07T11:14:44.058Z,1.95
2022-09-07T11:17:18.400Z,2.03
2022-09-07T11:19:52.796Z,1.65
2022-09-07T11:22:28.575Z,1.50
2022-09-07T11:25:30.025Z,1.65
2022-09-07T11:28:12.899Z,2.15
2022-09-07T11:30:50.015Z,1.90
2022-09-07T11:33:27.278Z,1.55
2022-09-07T11:36:02.327Z,1.85
2022-09-07T11:38:29.384Z,1.60
2022-09-07T11:41:19.324Z,1.30
2022-09-07T11:43:55.738Z,1.63
2022-09-07T11:46:37.633Z,1.50
2022-09-07T11:49:12.301Z,1.35
2022-09-07T11:52:06.445Z,1.95
2022-09-07T11:54:43.643Z,1.13
2022-09-07T11:57:16.101Z,1.70
2022-09-07T12:00:01.717Z,1.80
2022-09-07T12:02:59.804Z,1.73
2022-09-07T12:05:44.616Z,1.42
2022-09-07T12:08:21.669Z,1.60
2022-09-07T12:11:02.382Z,1.10
2022-09-07T12:14:01.355Z,1.40
2022-09-07T12:16:51.314Z,1.38
2022-09-07T12:19:24.776Z,1.55
2022-09-07T12:21:51.691Z,1.25
2022-09-07T12:24:37.102Z,1.27
2022-09-07T12:27:05.396Z,1.40
2022-09-07T12:29:32.745Z,1.70
2022-09-07T12:34:53.430Z,1.90
2022-09-07T12:37:40.743Z,1.10
2022-09-07T12:40:29.711Z,1.48
2022-09-07T12:43:15.169Z,1.48
2022-09-07T12:45:42.396Z,1.20
2022-09-07T12:48:15.434Z,1.50
2022-09-07T12:51:06.973Z,2.03
2022-09-07T12:53:57.445Z,1.63
2022-09-07T12:56:31.124Z,1.45
2022-09-07T12:59:19.815Z,1.50
2022-09-07T13:02:34.747Z,1.45
2022-09-07T13:05:29.313Z,1.55
2022-09-07T13:08:11.386Z,1.58
2022-09-07T13:10:42.819Z,1.20
2022-09-07T13:13:16.116Z,1.60
2022-09-07T13:16:05.842Z,1.65
2022-09-07T13:18:36.059Z,1.70
2022-09-07T13:21:08.950Z,1.48
2022-09-07T13:23:48.936Z,1.70
2022-09-07T13:26:53.592Z,1.60
2022-09-07T13:29:44.988Z,1.60
2022-09-07T13:32:19.409Z,1.67
2022-09-07T13:34:55.484Z,1.48
2022-09-07T13:37:24.994Z,1.58
2022-09-07T13:39:55.156Z,1.48
2022-09-07T13:42:32.487Z,1.63
2022-09-07T13:45:25.850Z,1.98
2022-09-07T13:48:27.854Z,1.67
2022-09-07T13:51:12.551Z,1.70
2022-09-07T13:54:01.563Z,1.42
2022-09-07T13:56:35.835Z,2.28
2022-09-07T13:59:21.059Z,1.70
2022-09-07T14:01:49.225Z,2.00
2022-09-07T14:04:41.953Z,1.65
2022-09-07T14:07:19.632Z,1.63
2022-09-07T14:09:48.985Z,1.30
2022-09-07T14:12:20.140Z,1.58
2022-09-07T14:15:09.165Z,1.45
2022-09-07T14:17:36.626Z,1.70
2022-09-07T14:20:04.117Z,1.85
2022-09-07T14:22:35.415Z,1.70
2022-09-07T14:25:06.047Z,1.20
2022-09-07T14:27:41.230Z,1.20
2022-09-07T14:30:26.358Z,1.45
2022-09-07T14:33:06.131Z,1.35
2022-09-07T14:35:36.812Z,1.73
2022-09-07T14:39:04.003Z,1.45
2022-09-07T14:41:10.299Z,1.60
2022-09-07T14:43:40.941Z,1.30
2022-09-07T14:46:24.651Z,1.50
2022-09-07T14:48:56.880Z,1.30
2022-09-07T14:51:36.144Z,1.60
2022-09-07T14:54:07.830Z,1.52
2022-09-07T14:56:37.635Z,1.50
2022-09-07T14:59:35.420Z,1.55
2022-09-07T15:02:18.449Z,1.27
2022-09-07T15:05:16.394Z,1.42
2022-09-07T15:07:50.388Z,1.35
2022-09-07T15:10:23.876Z,1.40
2022-09-07T15:12:56.564Z,1.65
2022-09-07T15:15:29.866Z,1.50
2022-09-07T15:18:05.903Z,1.38
2022-09-07T15:20:43.064Z,1.45
2022-09-07T15:23:15.447Z,1.92
2022-09-07T15:25:49.872Z,1.88
2022-09-07T15:34:03.265Z,1.55
2022-09-07T15:36:31.946Z,1.95
2022-09-07T15:38:59.957Z,1.52
2022-09-07T15:41:27.780Z,1.70
2022-09-07T15:43:56.619Z,1.60
2022-09-07T15:46:25.023Z,2.03
2022-09-07T15:48:56.221Z,1.65
2022-09-07T15:54:13.558Z,1.50
2022-09-07T15:56:42.419Z,1.63
2022-09-07T15:59:10.756Z,1.17
2022-09-07T16:01:55.308Z,1.70
2022-09-07T16:04:24.168Z,1.52
2022-09-07T16:06:51.185Z,1.65
2022-09-07T16:09:21.771Z,1.85
2022-09-07T16:11:50.200Z,1.73
2022-09-07T16:14:17.991Z,1.80
2022-09-07T16:19:34.991Z,1.40
2022-09-07T16:22:03.208Z,1.80
2022-09-07T16:24:30.435Z,1.92
2022-09-07T16:26:57.366Z,1.50
2022-09-07T16:29:24.712Z,1.50
2022-09-07T16:34:40.265Z,2.00
2022-09-07T16:37:07.292Z,2.20
2022-09-07T16:39:34.727Z,1.88
2022-09-07T16:42:01.583Z,1.52
2022-09-07T16:44:28.574Z,1.40
2022-09-07T16:46:55.380Z,1.85
2022-09-07T16:49:22.841Z,1.50
2022-09-07T16:51:49.837Z,1.83
2022-09-07T16:54:17.644Z,1.27
2022-09-07T16:56:44.639Z,1.63
2022-09-07T16:59:16.569Z,2.03
2022-09-07T17:01:43.935Z,1.58
2022-09-07T17:04:11.747Z,1.67
2022-09-07T17:06:39.744Z,1.90
2022-09-07T17:09:07.411Z,1.55
2022-09-07T17:11:36.288Z,1.30
2022-09-07T17:14:06.386Z,1.58
2022-09-07T17:16:39.832Z,1.70
2022-09-07T17:21:57.691Z,1.50
2022-09-07T17:24:24.648Z,1.88
2022-09-07T17:26:51.708Z,2.40
2022-09-07T17:29:18.595Z,1.65
2022-09-07T17:34:32.495Z,1.50
2022-09-07T17:37:01.015Z,2.05
2022-09-07T17:39:28.699Z,2.08
2022-09-07T17:41:55.694Z,2.00
2022-09-07T17:44:23.524Z,1.35
2022-09-07T17:46:50.920Z,2.40
2022-09-07T17:49:18.259Z,2.00
2022-09-07T17:51:46.012Z,2.45
2022-09-07T17:54:17.935Z,1.63
2022-09-07T17:56:45.732Z,2.10
2022-09-07T18:02:00.983Z,2.13
2022-09-07T18:04:28.507Z,2.30
2022-09-07T18:06:55.777Z,2.25
2022-09-07T18:09:22.795Z,1.80
2022-09-07T18:11:50.698Z,1.58
2022-09-07T18:14:18.706Z,2.47
2022-09-07T18:16:46.946Z,1.70
2022-09-07T18:19:14.448Z,2.00
2022-09-07T18:21:43.065Z,1.58
2022-09-07T18:24:17.374Z,1.75
2022-09-07T18:26:50.178Z,1.50
2022-09-07T18:29:37.435Z,1.88
2022-09-07T18:32:09.466Z,1.42
2022-09-07T18:34:38.495Z,2.33
2022-09-07T18:37:06.098Z,2.13
2022-09-07T18:39:35.197Z,1.92
2022-09-07T18:42:02.213Z,1.50
2022-09-07T18:47:23.405Z,1.90
2022-09-07T18:49:55.014Z,1.65
2022-09-07T18:55:10.232Z,1.85
2022-09-07T18:57:37.834Z,1.58
2022-09-07T19:00:07.756Z,1.45
2022-09-07T19:02:35.929Z,2.00
2022-09-07T19:07:50.082Z,1.65
2022-09-07T19:10:17.803Z,2.13
2022-09-07T19:12:46.703Z,2.42
2022-09-07T19:15:14.555Z,1.90
2022-09-07T19:17:41.418Z,1.77
2022-09-07T19:20:08.844Z,1.90
2022-09-07T19:22:35.947Z,2.20
2022-09-07T19:25:02.777Z,1.60
2022-09-07T19:27:32.801Z,1.70
2022-09-07T19:29:59.731Z,2.55
2022-09-07T19:32:26.903Z,1.83
2022-09-07T19:34:54.712Z,1.50
2022-09-07T19:37:25.908Z,2.00
2022-09-07T19:39:56.068Z,1.70
2022-09-07T19:42:24.404Z,1.60
2022-09-07T19:44:52.334Z,2.22
2022-09-07T19:47:20.157Z,1.73
2022-09-07T19:49:47.014Z,2.30
2022-09-07T19:52:14.048Z,2.30
2022-09-07T19:54:41.008Z,1.65
2022-09-07T19:57:07.985Z,2.05
2022-09-07T19:59:34.961Z,2.00
2022-09-07T20:02:01.847Z,1.77
2022-09-07T20:04:28.965Z,1.80
2022-09-07T20:06:56.364Z,2.50
2022-09-07T20:09:23.277Z,2.97
2022-09-07T20:11:50.268Z,1.92
2022-09-07T20:14:17.403Z,2.33
2022-09-07T20:16:44.891Z,1.80
2022-09-07T20:19:14.777Z,2.38
2022-09-07T20:21:42.462Z,1.90
2022-09-07T20:24:11.934Z,2.13
2022-09-07T20:26:39.184Z,1.85
2022-09-07T20:29:26.062Z,1.60
2022-09-07T20:31:53.952Z,1.70
2022-09-07T20:34:21.387Z,2.00
2022-09-07T20:36:51.980Z,1.83
2022-09-07T20:39:19.195Z,2.45
2022-09-07T20:41:46.221Z,2.35
2022-09-07T20:44:13.519Z,1.73
2022-09-07T20:46:40.421Z,1.63
2022-09-07T20:49:07.819Z,1.88
2022-09-07T20:51:35.421Z,1.98
2022-09-07T20:54:02.316Z,1.65
2022-09-07T20:56:30.582Z,2.15
2022-09-07T20:59:02.205Z,1.83
2022-09-07T21:01:31.273Z,1.98
2022-09-07T21:04:00.489Z,1.90
2022-09-07T21:06:28.875Z,1.92
2022-09-07T21:08:59.701Z,2.03
2022-09-07T21:11:31.138Z,2.20
2022-09-07T21:14:11.453Z,2.33
2022-09-07T21:16:39.169Z,1.90
2022-09-07T21:19:08.655Z,1.90
2022-09-07T21:21:39.306Z,2.28
2022-09-07T21:24:12.999Z,1.73
2022-09-07T21:26:40.031Z,1.80
2022-09-07T21:29:10.591Z,2.10
2022-09-07T21:31:37.587Z,2.38
2022-09-07T21:34:04.678Z,2.08
2022-09-07T21:36:31.810Z,1.95
2022-09-07T21:38:58.647Z,1.80
2022-09-07T21:41:25.892Z,1.75
2022-09-07T21:43:58.411Z,1.85
2022-09-07T21:46:26.626Z,1.70
2022-09-07T21:48:55.544Z,2.15
2022-09-07T21:51:24.548Z,1.40
2022-09-07T21:53:53.495Z,2.20
2022-09-07T21:56:22.212Z,1.73
2022-09-07T21:58:52.860Z,2.08
2022-09-07T22:01:20.121Z,1.95
2022-09-07T22:03:52.231Z,1.95
2022-09-07T22:06:19.183Z,1.75
2022-09-07T22:08:46.071Z,1.60
2022-09-07T22:11:18.656Z,2.30
2022-09-07T22:13:45.807Z,1.88
2022-09-07T22:16:13.628Z,2.13
2022-09-07T22:18:44.203Z,2.20
2022-09-07T22:21:13.684Z,1.90
2022-09-07T22:23:45.877Z,1.85
2022-09-07T22:26:14.311Z,1.90
2022-09-07T22:28:41.371Z,1.77
2022-09-07T22:31:17.018Z,1.70
2022-09-07T22:33:45.505Z,1.85
2022-09-07T22:36:16.975Z,1.70
2022-09-07T22:38:45.953Z,2.13
2022-09-07T22:41:18.943Z,1.55
2022-09-07T22:43:47.057Z,1.80
2022-09-07T22:46:14.864Z,1.67
2022-09-07T22:48:41.987Z,1.90
2022-09-07T22:51:09.552Z,2.03
2022-09-07T22:53:38.552Z,2.00
2022-09-07T22:56:13.994Z,1.95
2022-09-07T22:58:46.772Z,1.48
2022-09-07T23:01:13.991Z,2.00
2022-09-07T23:03:40.975Z,1.75
2022-09-07T23:06:08.759Z,1.73
2022-09-07T23:08:35.582Z,1.85
2022-09-07T23:11:05.111Z,1.75
2022-09-07T23:13:33.170Z,1.60
2022-09-07T23:16:08.276Z,1.90
2022-09-07T23:18:36.136Z,1.88
2022-09-07T23:21:03.032Z,1.65
2022-09-07T23:23:30.102Z,2.03
2022-09-07T23:25:57.026Z,1.80
2022-09-07T23:28:23.808Z,1.50
2022-09-07T23:30:51.523Z,1.55
2022-09-07T23:33:18.384Z,1.67
2022-09-07T23:35:59.670Z,1.42
2022-09-07T23:38:27.263Z,1.75
2022-09-07T23:40:55.137Z,1.95
2022-09-07T23:43:22.960Z,1.52
2022-09-07T23:45:50.038Z,1.83
2022-09-07T23:48:16.920Z,1.80
2022-09-07T23:50:45.068Z,1.42
2022-09-07T23:53:12.718Z,1.40
2022-09-07T23:55:40.346Z,1.60
2022-09-07T23:58:08.504Z,1.40
